Time;durP1;ratioP1;P1;durP2;ratioP2;P2;SDS_P1;SDS_P2;PMS_P1;PMS_P2;Temp;Humidity;BMP_temperature;BMP_pressure;BME280_temperature;BME280_humidity;BME280_pressure;Samples;Min_cycle;Max_cycle;Signal;HPM_P1;HPM_P2
2023/07/30 00:00:10;;;;;;;16.30;7.53;;;;;;;16.39;100.00;100831.34;5045584;28;20129;-75
2023/07/30 00:02:38;;;;;;;20.88;7.20;;;;;;;16.33;100.00;100825.69;5044390;28;20280;-75
2023/07/30 00:05:04;;;;;;;18.35;8.07;;;;;;;16.35;100.00;100829.06;5043346;28;20075;-75
2023/07/30 00:07:30;;;;;;;18.70;8.25;;;;;;;16.29;100.00;100827.78;5044655;28;20452;-76
2023/07/30 00:09:55;;;;;;;17.40;8.15;;;;;;;16.28;100.00;100829.63;5050669;28;20033;-76
2023/07/30 00:12:21;;;;;;;20.20;8.00;;;;;;;16.30;100.00;100835.69;5053981;28;20369;-76
2023/07/30 00:14:47;;;;;;;15.93;8.88;;;;;;;16.20;100.00;100828.56;5045492;28;20083;-75
2023/07/30 00:17:13;;;;;;;18.17;9.70;;;;;;;16.17;100.00;100831.56;5046079;28;20103;-75
2023/07/30 00:19:38;;;;;;;23.13;11.13;;;;;;;16.17;100.00;100835.09;5049302;28;20037;-75
2023/07/30 00:22:07;;;;;;;31.58;11.45;;;;;;;16.25;100.00;100823.63;5046875;28;20037;-75
2023/07/30 00:24:33;;;;;;;19.42;10.13;;;;;;;16.16;100.00;100824.44;5046019;28;20039;-75
2023/07/30 00:26:58;;;;;;;16.20;9.70;;;;;;;16.13;100.00;100832.78;5049129;28;20061;-75
2023/07/30 00:29:25;;;;;;;17.05;8.75;;;;;;;16.23;100.00;100825.63;5049941;28;20037;-75
2023/07/30 00:31:50;;;;;;;22.15;8.48;;;;;;;16.08;100.00;100838.56;5050684;28;20412;-74
2023/07/30 00:34:16;;;;;;;15.65;8.15;;;;;;;16.19;100.00;100834.94;5029175;28;20538;-75
2023/07/30 00:36:42;;;;;;;15.07;7.72;;;;;;;16.11;100.00;100840.13;5050239;28;20044;-74
2023/07/30 00:39:11;;;;;;;18.75;7.80;;;;;;;16.05;100.00;100831.59;5083226;27;20076;-75
2023/07/30 00:41:37;;;;;;;21.63;7.70;;;;;;;16.02;100.00;100828.34;5066007;28;20040;-74
2023/07/30 00:44:04;;;;;;;19.92;7.43;;;;;;;16.13;100.00;100835.47;5048328;28;20029;-75
2023/07/30 00:46:30;;;;;;;22.48;7.72;;;;;;;15.99;100.00;100825.91;5045121;28;20120;-73
2023/07/30 00:48:56;;;;;;;17.00;8.13;;;;;;;16.05;100.00;100828.91;5047275;28;20052;-73
2023/07/30 00:51:23;;;;;;;14.85;6.85;;;;;;;15.92;100.00;100830.13;5064255;28;20148;-73
2023/07/30 00:53:49;;;;;;;18.65;6.45;;;;;;;15.90;100.00;100832.94;5063900;28;20632;-73
2023/07/30 00:56:16;;;;;;;14.93;6.88;;;;;;;15.90;100.00;100829.38;5050780;28;20128;-73
2023/07/30 00:58:48;;;;;;;12.18;6.30;;;;;;;15.91;100.00;100836.47;5050320;28;20037;-74
2023/07/30 01:01:15;;;;;;;20.27;7.28;;;;;;;15.94;100.00;100841.59;5044850;28;20033;-73
2023/07/30 01:03:43;;;;;;;13.80;6.47;;;;;;;15.97;100.00;100839.50;5047604;28;20087;-74
2023/07/30 01:06:09;;;;;;;14.15;7.00;;;;;;;16.02;100.00;100839.97;5042458;28;20097;-73
2023/07/30 01:08:35;;;;;;;20.98;7.32;;;;;;;15.93;100.00;100835.38;5050817;28;20132;-74
2023/07/30 01:11:02;;;;;;;14.65;6.88;;;;;;;15.89;100.00;100833.91;5050992;28;20115;-75
2023/07/30 01:13:29;;;;;;;12.80;6.13;;;;;;;15.69;100.00;100841.00;5055258;28;20033;-73
2023/07/30 01:15:55;;;;;;;17.15;7.13;;;;;;;15.75;100.00;100850.38;5063527;28;20033;-75
2023/07/30 01:18:21;;;;;;;11.60;6.70;;;;;;;15.73;100.00;100855.88;5046733;28;20127;-75
2023/07/30 01:20:46;;;;;;;13.13;6.72;;;;;;;15.84;100.00;100848.75;5046916;28;20029;-76
2023/07/30 01:23:15;;;;;;;18.48;7.35;;;;;;;15.74;100.00;100846.84;5043313;28;20045;-75
2023/07/30 01:25:44;;;;;;;19.58;7.10;;;;;;;15.77;100.00;100851.13;5044767;28;20028;-75
2023/07/30 01:28:15;;;;;;;11.45;6.93;;;;;;;15.78;100.00;100856.34;5046152;28;20165;-75
2023/07/30 01:30:45;;;;;;;14.53;7.07;;;;;;;15.69;100.00;100862.50;5048424;28;20063;-75
2023/07/30 01:33:17;;;;;;;15.82;7.32;;;;;;;15.73;100.00;100860.41;5047624;28;20033;-75
2023/07/30 01:35:43;;;;;;;18.77;7.70;;;;;;;15.67;100.00;100861.78;5057073;28;20033;-74
2023/07/30 01:38:15;;;;;;;13.40;7.35;;;;;;;15.83;100.00;100864.03;5046286;28;20037;-75
2023/07/30 01:40:43;;;;;;;13.75;6.63;;;;;;;15.75;100.00;100870.03;5045351;28;20029;-74
2023/07/30 01:43:12;;;;;;;16.70;7.65;;;;;;;15.68;100.00;100857.25;5043048;28;20048;-75
2023/07/30 01:45:39;;;;;;;16.02;5.80;;;;;;;15.70;100.00;100863.34;5073837;28;20078;-74
2023/07/30 01:48:08;;;;;;;14.45;6.95;;;;;;;15.63;100.00;100865.72;5056179;28;20046;-75
2023/07/30 01:50:34;;;;;;;16.15;7.18;;;;;;;15.66;100.00;100865.47;5040240;28;20029;-75
2023/07/30 01:53:00;;;;;;;23.17;7.95;;;;;;;15.56;100.00;100877.91;5046566;28;20068;-74
2023/07/30 01:55:25;;;;;;;15.30;6.97;;;;;;;15.50;100.00;100879.28;5079112;27;20119;-74
2023/07/30 01:57:51;;;;;;;22.88;7.22;;;;;;;15.58;100.00;100875.13;5044454;28;20038;-74
2023/07/30 02:00:16;;;;;;;18.02;6.70;;;;;;;15.45;100.00;100883.34;5080917;28;20044;-74
2023/07/30 02:02:43;;;;;;;16.80;6.72;;;;;;;15.42;100.00;100879.09;5079957;27;20055;-74
2023/07/30 02:05:09;;;;;;;17.33;6.72;;;;;;;15.46;100.00;100872.47;5058118;28;20323;-74
2023/07/30 02:07:34;;;;;;;22.77;6.20;;;;;;;15.48;100.00;100867.81;5047366;28;20053;-74
2023/07/30 02:10:00;;;;;;;19.40;6.55;;;;;;;15.54;100.00;100859.25;5043355;28;20034;-74
2023/07/30 02:12:26;;;;;;;15.55;6.25;;;;;;;15.48;100.00;100865.13;5062378;28;20146;-74
2023/07/30 02:14:51;;;;;;;16.80;6.45;;;;;;;15.45;100.00;100864.53;5042990;28;20067;-74
2023/07/30 02:17:17;;;;;;;16.67;6.20;;;;;;;15.36;100.00;100870.66;5047990;28;20033;-74
2023/07/30 02:19:46;;;;;;;13.70;6.43;;;;;;;15.45;100.00;100862.69;5048266;28;20122;-74
2023/07/30 02:22:15;;;;;;;15.00;5.93;;;;;;;15.51;100.00;100866.69;5075085;27;20083;-75
2023/07/30 02:24:44;;;;;;;12.60;5.72;;;;;;;15.36;100.00;100849.16;5043602;28;20029;-73
2023/07/30 02:27:10;;;;;;;17.00;5.47;;;;;;;15.40;100.00;100864.06;5043987;28;20494;-74
2023/07/30 02:29:39;;;;;;;21.50;6.43;;;;;;;15.52;100.00;100857.69;5038011;28;20041;-74
2023/07/30 02:32:05;;;;;;;17.45;5.97;;;;;;;15.50;100.00;100862.31;5046900;28;20382;-74
2023/07/30 02:34:31;;;;;;;9.90;5.07;;;;;;;15.54;100.00;100856.56;5046252;28;20031;-74
2023/07/30 02:36:57;;;;;;;18.95;5.40;;;;;;;15.59;100.00;100856.16;5047197;28;20542;-74
2023/07/30 02:39:22;;;;;;;13.23;5.55;;;;;;;15.56;100.00;100851.03;5045273;28;20032;-74
2023/07/30 02:41:48;;;;;;;16.95;5.28;;;;;;;15.48;100.00;100857.06;5045710;28;20345;-75
2023/07/30 02:44:13;;;;;;;22.15;6.88;;;;;;;15.50;100.00;100855.09;5045775;28;20029;-75
2023/07/30 02:46:43;;;;;;;18.55;5.65;;;;;;;15.54;100.00;100855.69;5043046;28;20033;-75
2023/07/30 02:49:09;;;;;;;24.08;5.65;;;;;;;15.51;100.00;100856.81;5061500;28;20147;-75
2023/07/30 02:51:34;;;;;;;22.08;5.55;;;;;;;15.56;100.00;100859.09;5050976;28;20545;-75
2023/07/30 02:54:05;;;;;;;13.82;5.75;;;;;;;15.55;100.00;100855.56;5045156;28;20556;-75
2023/07/30 02:56:30;;;;;;;14.77;6.18;;;;;;;15.63;100.00;100857.66;5035948;28;20128;-76
2023/07/30 02:58:58;;;;;;;20.80;6.35;;;;;;;15.61;100.00;100858.72;5045305;28;20671;-75
2023/07/30 03:01:24;;;;;;;14.70;5.57;;;;;;;15.67;100.00;100851.03;5040454;28;20071;-75
2023/07/30 03:03:49;;;;;;;12.43;5.78;;;;;;;15.67;100.00;100851.03;5046397;28;20052;-75
2023/07/30 03:06:16;;;;;;;17.65;6.65;;;;;;;15.72;100.00;100850.66;5062000;28;20114;-75
2023/07/30 03:08:46;;;;;;;18.20;6.90;;;;;;;15.68;100.00;100857.25;5029117;28;20076;-75
2023/07/30 03:11:13;;;;;;;17.27;7.18;;;;;;;15.86;100.00;100852.13;5045759;28;20039;-73
2023/07/30 03:13:43;;;;;;;28.25;7.22;;;;;;;15.84;100.00;100854.13;5044683;28;20033;-74
2023/07/30 03:16:09;;;;;;;16.83;7.63;;;;;;;15.89;100.00;100855.44;5036571;28;20041;-74
2023/07/30 03:18:35;;;;;;;27.38;8.25;;;;;;;15.92;100.00;100851.66;5042141;28;20143;-74
2023/07/30 03:21:01;;;;;;;16.60;8.20;;;;;;;15.86;100.00;100850.31;5079476;28;20573;-73
2023/07/30 03:23:27;;;;;;;21.63;7.93;;;;;;;15.96;100.00;100855.75;5046745;28;21088;-74
2023/07/30 03:25:53;;;;;;;23.92;8.45;;;;;;;15.90;100.00;100849.06;5047317;28;20559;-74
2023/07/30 03:28:18;;;;;;;22.08;8.00;;;;;;;15.86;100.00;100854.84;5040055;28;20049;-75
2023/07/30 03:30:44;;;;;;;25.17;9.05;;;;;;;15.82;100.00;100854.25;5055700;28;20398;-74
2023/07/30 03:33:13;;;;;;;23.15;9.30;;;;;;;15.90;100.00;100856.28;5048046;28;20163;-74
2023/07/30 03:35:48;;;;;;;25.15;9.90;;;;;;;15.89;100.00;100860.81;5028878;28;20041;-73
2023/07/30 03:38:15;;;;;;;30.40;10.48;;;;;;;15.97;100.00;100855.63;5044784;28;20969;-73
2023/07/30 03:40:43;;;;;;;29.30;10.75;;;;;;;15.92;100.00;100855.19;5045859;28;20037;-73
2023/07/30 03:43:18;;;;;;;35.03;10.48;;;;;;;16.05;100.00;100855.81;5043263;28;20061;-74
2023/07/30 03:45:44;;;;;;;25.17;10.23;;;;;;;15.98;100.00;100859.19;5048006;28;20068;-74
2023/07/30 03:48:09;;;;;;;39.80;11.70;;;;;;;16.01;100.00;100859.78;5049057;28;20037;-74
2023/07/30 03:50:37;;;;;;;28.02;10.55;;;;;;;16.07;100.00;100857.53;5082101;28;20068;-74
2023/07/30 03:53:02;;;;;;;36.03;11.82;;;;;;;16.11;100.00;100859.81;5050296;28;20036;-75
2023/07/30 03:55:28;;;;;;;28.33;10.82;;;;;;;16.07;100.00;100858.41;5045538;28;20067;-75
2023/07/30 03:57:54;;;;;;;25.63;10.77;;;;;;;16.08;100.00;100862.78;5043956;28;20581;-75
2023/07/30 04:00:19;;;;;;;23.13;9.65;;;;;;;16.03;100.00;100865.88;5051085;28;20365;-75
2023/07/30 04:02:45;;;;;;;34.10;11.73;;;;;;;16.01;100.00;100870.53;5048907;28;20123;-75
2023/07/30 04:05:13;;;;;;;32.45;11.13;;;;;;;16.12;100.00;100866.06;5054222;28;20045;-74
2023/07/30 04:07:38;;;;;;;25.30;11.73;;;;;;;16.14;100.00;100874.84;5050165;28;21360;-74
2023/07/30 04:10:04;;;;;;;27.42;12.45;;;;;;;16.10;100.00;100878.78;5044287;28;20766;-74
2023/07/30 04:12:30;;;;;;;26.17;11.77;;;;;;;16.13;100.00;100878.53;5072437;27;20036;-76
2023/07/30 04:14:55;;;;;;;26.95;12.95;;;;;;;16.18;100.00;100885.22;5047884;28;20039;-74
2023/07/30 04:17:21;;;;;;;37.88;13.07;;;;;;;16.14;100.00;100877.53;5045056;28;20038;-75
2023/07/30 04:19:47;;;;;;;41.92;13.02;;;;;;;16.22;100.00;100875.06;5049425;28;20485;-76
2023/07/30 04:22:13;;;;;;;32.72;12.40;;;;;;;16.17;100.00;100883.53;5044797;28;20037;-74
2023/07/30 04:24:42;;;;;;;31.98;13.48;;;;;;;16.28;100.00;100882.59;5049552;28;20037;-76
2023/07/30 04:27:08;;;;;;;36.15;13.43;;;;;;;16.27;100.00;100876.34;5062972;28;20033;-75
2023/07/30 04:29:34;;;;;;;36.20;13.35;;;;;;;16.17;100.00;100894.28;5043966;28;20044;-74
2023/07/30 04:32:00;;;;;;;33.45;13.18;;;;;;;16.25;100.00;100882.84;5050186;28;20604;-74
2023/07/30 04:34:26;;;;;;;38.80;13.90;;;;;;;16.37;100.00;100886.31;5041768;28;20029;-74
2023/07/30 04:36:52;;;;;;;38.70;14.35;;;;;;;16.30;100.00;100889.53;5045834;28;20126;-73
2023/07/30 04:39:19;;;;;;;40.80;13.98;;;;;;;16.42;100.00;100884.94;5045601;28;20038;-73
2023/07/30 04:41:45;;;;;;;31.42;14.63;;;;;;;16.46;100.00;100885.50;5045005;28;20143;-74
2023/07/30 04:44:13;;;;;;;38.85;14.30;;;;;;;16.57;100.00;100880.91;5044308;28;20037;-74
2023/07/30 04:46:42;;;;;;;43.38;14.13;;;;;;;16.61;100.00;100891.38;5060412;28;20041;-73
2023/07/30 04:49:08;;;;;;;39.15;14.98;;;;;;;16.44;100.00;100900.94;5044268;28;20045;-72
2023/07/30 04:51:34;;;;;;;41.40;15.68;;;;;;;16.66;100.00;100892.66;5044462;28;20451;-72
2023/07/30 04:54:00;;;;;;;42.92;15.15;;;;;;;16.53;100.00;100903.69;5037321;28;20283;-73
2023/07/30 04:56:26;;;;;;;48.28;17.00;;;;;;;16.62;100.00;100907.41;5081078;28;20139;-76
2023/07/30 04:58:53;;;;;;;44.97;15.70;;;;;;;16.75;100.00;100905.38;5063409;28;20056;-72
2023/07/30 05:01:19;;;;;;;46.85;16.10;;;;;;;16.85;100.00;100908.09;5046761;28;20383;-73
2023/07/30 05:03:45;;;;;;;39.92;14.93;;;;;;;16.76;100.00;100911.59;5049070;28;20798;-74
2023/07/30 05:06:12;;;;;;;35.10;15.40;;;;;;;16.81;100.00;100904.81;5047589;28;20522;-74
2023/07/30 05:08:37;;;;;;;39.50;15.55;;;;;;;16.83;100.00;100908.25;5048292;28;20044;-74
2023/07/30 05:11:03;;;;;;;42.78;15.50;;;;;;;16.94;100.00;100903.75;5044177;28;20712;-73
2023/07/30 05:13:28;;;;;;;43.75;15.88;;;;;;;16.91;100.00;100912.09;5047330;28;20495;-73
2023/07/30 05:15:54;;;;;;;49.15;16.58;;;;;;;16.96;100.00;100921.47;5044756;28;20072;-72
2023/07/30 05:18:19;;;;;;;46.10;15.95;;;;;;;17.05;100.00;100911.72;5050195;28;20615;-73
2023/07/30 05:20:48;;;;;;;42.55;14.95;;;;;;;17.19;100.00;100905.09;5051568;28;20029;-73
2023/07/30 05:23:17;;;;;;;43.85;16.85;;;;;;;17.27;100.00;100911.50;5044246;28;20033;-73
2023/07/30 05:25:44;;;;;;;40.58;16.23;;;;;;;17.23;100.00;100909.22;5081199;27;20033;-73
2023/07/30 05:28:13;;;;;;;37.42;15.30;;;;;;;17.35;100.00;100908.09;5029322;28;20064;-72
2023/07/30 05:30:44;;;;;;;41.20;16.35;;;;;;;17.29;100.00;100911.34;5047401;28;20941;-74
2023/07/30 05:33:11;;;;;;;33.08;15.15;;;;;;;17.43;100.00;100910.09;5050408;28;20029;-73
2023/07/30 05:35:45;;;;;;;36.00;14.95;;;;;;;17.50;100.00;100904.00;5045627;28;20040;-73
2023/07/30 05:38:13;;;;;;;43.88;15.95;;;;;;;17.53;100.00;100900.19;5049179;28;20029;-73
2023/07/30 05:40:38;;;;;;;34.55;15.77;;;;;;;17.75;100.00;100904.47;5047728;28;20029;-73
2023/07/30 05:43:04;;;;;;;40.45;16.50;;;;;;;17.65;100.00;100906.28;5044921;28;20041;-72
2023/07/30 05:45:29;;;;;;;48.60;17.73;;;;;;;17.64;100.00;100908.13;5048836;28;20591;-73
2023/07/30 05:47:55;;;;;;;39.25;17.02;;;;;;;17.69;100.00;100919.34;5048806;28;20896;-73
2023/07/30 05:50:21;;;;;;;41.90;16.58;;;;;;;17.50;100.00;100908.53;5046046;28;20776;-73
2023/07/30 05:52:46;;;;;;;42.75;17.70;;;;;;;17.59;100.00;100908.53;5049602;28;20825;-75
2023/07/30 05:55:15;;;;;;;41.75;17.00;;;;;;;17.53;100.00;100905.56;5049458;28;20041;-75
2023/07/30 05:57:43;;;;;;;43.97;17.92;;;;;;;17.90;100.00;100904.88;5062536;28;21092;-76
2023/07/30 06:00:10;;;;;;;38.30;17.27;;;;;;;17.96;100.00;100898.91;5045425;28;21219;-75
2023/07/30 06:02:39;;;;;;;42.65;17.13;;;;;;;18.27;100.00;100899.56;5050826;28;20044;-75
2023/07/30 06:05:05;;;;;;;46.63;17.48;;;;;;;18.73;100.00;100898.75;5029732;28;20489;-75
2023/07/30 06:07:31;;;;;;;39.72;17.30;;;;;;;18.48;100.00;100900.25;5048195;28;20124;-75
2023/07/30 06:09:56;;;;;;;33.58;15.68;;;;;;;18.49;100.00;100912.75;5068388;28;20780;-75
2023/07/30 06:12:22;;;;;;;41.72;17.48;;;;;;;18.61;100.00;100905.31;5054115;28;20040;-76
2023/07/30 06:14:48;;;;;;;42.72;17.60;;;;;;;18.34;100.00;100906.94;5040909;28;20900;-75
2023/07/30 06:17:13;;;;;;;47.83;18.42;;;;;;;18.13;100.00;100900.91;5051601;28;20037;-75
2023/07/30 06:19:39;;;;;;;41.85;17.85;;;;;;;18.08;100.00;100901.31;5039712;28;20044;-74
2023/07/30 06:22:13;;;;;;;37.70;17.73;;;;;;;18.27;100.00;100896.88;5045016;28;20106;-74
2023/07/30 06:24:40;;;;;;;45.90;18.40;;;;;;;18.25;100.00;100902.41;5067511;28;20940;-73
2023/07/30 06:27:06;;;;;;;34.88;16.40;;;;;;;18.14;100.00;100899.03;5030587;28;20037;-73
2023/07/30 06:29:32;;;;;;;48.03;17.33;;;;;;;18.21;100.00;100909.09;5049444;28;20382;-73
2023/07/30 06:31:57;;;;;;;44.25;17.20;;;;;;;18.28;100.00;100909.41;5068463;28;20040;-75
2023/07/30 06:34:23;;;;;;;51.33;17.60;;;;;;;18.15;100.00;100912.38;5067219;28;20467;-74
2023/07/30 06:36:49;;;;;;;35.17;16.65;;;;;;;18.09;100.00;100908.41;5050888;28;20427;-73
2023/07/30 06:39:15;;;;;;;40.88;17.50;;;;;;;18.21;100.00;100905.56;5045490;28;20090;-73
2023/07/30 06:41:49;;;;;;;40.08;18.05;;;;;;;18.31;100.00;100906.38;5046915;28;20057;-75
2023/07/30 06:44:15;;;;;;;40.20;16.70;;;;;;;18.32;100.00;100899.97;5047900;28;20040;-73
2023/07/30 06:46:45;;;;;;;41.53;15.48;;;;;;;18.42;100.00;100895.41;5041228;28;20037;-73
2023/07/30 06:49:10;;;;;;;37.92;16.33;;;;;;;18.65;100.00;100901.31;5048985;28;20052;-75
2023/07/30 06:51:40;;;;;;;40.58;16.42;;;;;;;18.89;100.00;100906.22;5043104;28;20033;-75
2023/07/30 06:54:10;;;;;;;37.78;15.77;;;;;;;18.89;100.00;100900.81;5049898;28;20045;-75
2023/07/30 06:56:37;;;;;;;37.63;16.08;;;;;;;19.33;100.00;100898.31;5044996;28;20596;-73
2023/07/30 06:59:03;;;;;;;37.35;16.42;;;;;;;19.24;100.00;100901.91;5043945;28;20152;-75
2023/07/30 07:01:29;;;;;;;31.73;14.13;;;;;;;19.19;100.00;100899.66;5044052;28;20041;-72
2023/07/30 07:03:55;;;;;;;41.47;15.57;;;;;;;19.44;100.00;100902.63;5042383;28;20072;-73
2023/07/30 07:06:21;;;;;;;43.08;16.35;;;;;;;19.54;100.00;100906.97;5044596;28;20033;-75
2023/07/30 07:08:46;;;;;;;44.03;14.73;;;;;;;19.41;100.00;100910.03;5040405;28;20149;-73
2023/07/30 07:11:16;;;;;;;37.65;15.88;;;;;;;19.39;100.00;100908.50;5057150;28;20037;-72
2023/07/30 07:13:51;;;;;;;38.28;14.80;;;;;;;19.03;100.00;100907.59;5039108;28;20075;-75
2023/07/30 07:16:16;;;;;;;37.60;15.52;;;;;;;19.14;100.00;100915.47;5046165;28;20038;-75
2023/07/30 07:18:45;;;;;;;42.63;15.43;;;;;;;19.39;100.00;100911.19;5042548;28;20585;-75
2023/07/30 07:21:17;;;;;;;37.08;14.65;;;;;;;19.18;100.00;100913.31;5043578;28;20306;-74
2023/07/30 07:23:46;;;;;;;35.75;16.17;;;;;;;19.37;100.00;100910.47;5058524;28;20040;-76
2023/07/30 07:26:17;;;;;;;38.22;16.13;;;;;;;19.37;100.00;100911.34;5056569;28;20032;-75
2023/07/30 07:28:46;;;;;;;40.40;15.57;;;;;;;19.92;100.00;100916.63;5043911;28;20088;-76
2023/07/30 07:31:18;;;;;;;39.95;16.30;;;;;;;20.21;100.00;100903.84;5046107;28;20140;-75
2023/07/30 07:33:45;;;;;;;43.30;16.30;;;;;;;19.99;100.00;100905.22;5041254;28;20037;-75
2023/07/30 07:36:17;;;;;;;37.83;16.70;;;;;;;19.93;100.00;100914.81;5047456;28;20387;-74
2023/07/30 07:38:45;;;;;;;45.67;16.27;;;;;;;20.55;100.00;100910.19;5044040;28;20128;-75
2023/07/30 07:41:17;;;;;;;30.38;14.73;;;;;;;20.69;100.00;100893.34;5042430;28;20085;-75
2023/07/30 07:43:45;;;;;;;36.58;15.40;;;;;;;20.85;100.00;100891.72;5047026;28;20033;-76
2023/07/30 07:46:17;;;;;;;42.72;15.43;;;;;;;20.61;100.00;100904.13;5044814;28;20128;-73
2023/07/30 07:48:44;;;;;;;33.42;13.85;;;;;;;20.20;100.00;100900.28;5047909;28;20037;-74
2023/07/30 07:51:15;;;;;;;35.30;15.48;;;;;;;20.31;100.00;100901.88;5048057;28;20041;-75
2023/07/30 07:53:44;;;;;;;34.20;15.45;;;;;;;20.28;100.00;100903.06;5047276;28;20055;-75
2023/07/30 07:56:15;;;;;;;42.55;15.38;;;;;;;20.68;100.00;100926.88;5041379;28;20037;-75
2023/07/30 07:58:45;;;;;;;44.00;16.48;;;;;;;20.95;100.00;100919.56;5043246;28;20048;-76
2023/07/30 08:01:13;;;;;;;32.42;14.23;;;;;;;21.67;100.00;100914.53;5076485;27;20063;-75
2023/07/30 08:03:46;;;;;;;32.47;14.80;;;;;;;22.38;100.00;100911.16;5046144;28;20029;-74
2023/07/30 08:06:15;;;;;;;35.65;13.15;;;;;;;22.19;97.81;100925.13;5043229;28;20124;-76
2023/07/30 08:08:44;;;;;;;35.50;12.48;;;;;;;21.88;95.73;100911.31;5043644;28;20033;-76
2023/07/30 08:11:16;;;;;;;24.75;10.98;;;;;;;21.67;98.27;100918.09;5050096;28;20029;-73
2023/07/30 08:13:45;;;;;;;27.50;10.18;;;;;;;21.18;97.98;100927.94;5043607;28;20094;-73
2023/07/30 08:16:15;;;;;;;20.55;9.13;;;;;;;21.52;97.11;100925.19;5033327;28;20118;-75
2023/07/30 08:18:45;;;;;;;26.58;9.20;;;;;;;21.41;97.89;100925.50;5044572;28;20060;-75
2023/07/30 08:21:17;;;;;;;21.02;8.70;;;;;;;21.26;98.16;100927.97;5062834;28;20490;-75
2023/07/30 08:23:52;;;;;;;22.42;8.93;;;;;;;21.08;95.76;100921.78;5075440;27;20045;-75
2023/07/30 08:26:18;;;;;;;23.00;8.45;;;;;;;21.42;96.62;100921.78;5046493;28;20025;-75
2023/07/30 08:28:43;;;;;;;26.95;7.75;;;;;;;21.40;97.43;100912.97;5052228;28;20115;-74
2023/07/30 08:31:09;;;;;;;19.27;7.60;;;;;;;21.46;96.91;100924.00;5046456;28;20043;-75
2023/07/30 08:33:34;;;;;;;22.20;7.88;;;;;;;21.32;95.84;100915.63;5047042;28;20532;-74
2023/07/30 08:36:00;;;;;;;23.15;7.40;;;;;;;21.30;98.03;100917.66;5063072;28;20820;-75
2023/07/30 08:38:26;;;;;;;24.50;6.43;;;;;;;21.75;94.51;100914.56;5061799;28;20033;-75
2023/07/30 08:40:51;;;;;;;20.75;6.55;;;;;;;22.21;92.35;100910.34;5049062;28;20108;-74
2023/07/30 08:43:20;;;;;;;26.35;6.53;;;;;;;22.20;89.94;100908.66;5048127;28;20127;-74
2023/07/30 08:45:45;;;;;;;25.13;7.13;;;;;;;22.45;87.87;100912.16;5048497;28;20115;-73
2023/07/30 08:48:17;;;;;;;18.02;6.28;;;;;;;22.18;88.15;100913.38;5048921;28;20097;-73
2023/07/30 08:50:44;;;;;;;26.88;8.20;;;;;;;22.26;86.67;100909.81;5042832;28;20180;-74
2023/07/30 08:53:11;;;;;;;23.42;6.75;;;;;;;22.40;87.19;100903.69;5053048;28;20075;-74
2023/07/30 08:55:38;;;;;;;25.63;6.60;;;;;;;22.36;86.89;100906.91;5048331;28;20044;-74
2023/07/30 08:58:05;;;;;;;21.98;6.90;;;;;;;22.01;87.69;100910.81;5046707;28;20041;-73
2023/07/30 09:00:36;;;;;;;21.08;6.60;;;;;;;22.52;87.97;100903.31;5052796;28;20040;-73
2023/07/30 09:03:04;;;;;;;25.00;7.07;;;;;;;22.29;87.63;100912.22;5051339;28;20022;-73
2023/07/30 09:05:30;;;;;;;19.02;7.22;;;;;;;22.38;88.95;100904.88;5043530;28;20040;-74
2023/07/30 09:07:57;;;;;;;24.50;7.57;;;;;;;22.19;85.11;100914.25;5048609;28;20098;-74
2023/07/30 09:10:23;;;;;;;25.98;6.53;;;;;;;22.38;85.77;100918.47;5059869;28;20052;-73
2023/07/30 09:12:59;;;;;;;21.35;6.57;;;;;;;21.81;84.90;100932.88;5063468;28;20326;-73
2023/07/30 09:15:33;;;;;;;20.33;6.57;;;;;;;21.59;87.91;100928.09;5044316;28;20065;-74
2023/07/30 09:18:01;;;;;;;17.27;5.70;;;;;;;21.45;87.67;100925.00;5039982;28;20029;-74
2023/07/30 09:20:27;;;;;;;26.05;6.80;;;;;;;21.66;88.72;100937.25;5055866;28;20037;-74
2023/07/30 09:22:52;;;;;;;18.60;5.93;;;;;;;21.97;89.75;100935.59;5050825;28;20037;-74
2023/07/30 09:25:20;;;;;;;24.85;6.85;;;;;;;21.66;89.09;100935.41;5046540;28;20033;-74
2023/07/30 09:27:52;;;;;;;24.20;7.30;;;;;;;21.85;88.28;100933.41;5049783;28;20060;-73
2023/07/30 09:30:27;;;;;;;16.20;5.03;;;;;;;21.80;87.51;100933.91;5043286;28;20091;-73
2023/07/30 09:32:55;;;;;;;26.40;7.32;;;;;;;22.02;88.11;100932.38;5048017;28;20036;-75
2023/07/30 09:35:22;;;;;;;21.00;6.03;;;;;;;22.11;84.98;100931.41;5047350;28;20033;-74
2023/07/30 09:37:48;;;;;;;18.08;6.38;;;;;;;21.94;86.24;100933.22;5041001;28;20044;-74
2023/07/30 09:40:18;;;;;;;21.85;6.40;;;;;;;22.07;85.93;100934.59;5045387;28;20108;-74
2023/07/30 09:42:48;;;;;;;20.45;5.65;;;;;;;21.91;85.54;100939.00;5046193;28;20173;-74
2023/07/30 09:45:23;;;;;;;24.70;6.07;;;;;;;21.94;85.14;100935.09;5040689;28;20116;-74
2023/07/30 09:47:53;;;;;;;21.85;5.78;;;;;;;21.78;85.39;100946.78;5044959;28;20084;-74
2023/07/30 09:50:19;;;;;;;27.70;6.28;;;;;;;22.12;84.69;100943.09;5045936;28;20043;-73
2023/07/30 09:52:46;;;;;;;19.15;5.32;;;;;;;22.52;82.97;100934.06;5045260;28;20231;-73
2023/07/30 09:55:15;;;;;;;17.88;5.80;;;;;;;22.81;80.49;100925.34;5038050;28;20041;-74
2023/07/30 09:57:43;;;;;;;19.75;5.65;;;;;;;22.33;82.40;100931.72;5045183;28;20029;-73
2023/07/30 10:00:09;;;;;;;26.17;5.95;;;;;;;22.11;83.09;100938.69;5045850;28;20050;-74
2023/07/30 10:02:49;;;;;;;15.30;5.32;;;;;;;22.65;83.20;100941.69;5048564;28;20143;-76
2023/07/30 10:05:19;;;;;;;24.60;5.32;;;;;;;22.71;82.62;100941.00;5044283;28;20045;-74
2023/07/30 10:07:53;;;;;;;20.20;5.07;;;;;;;23.02;80.38;100937.53;5044249;28;20049;-73
2023/07/30 10:10:20;;;;;;;14.10;5.05;;;;;;;23.25;77.22;100933.00;5042736;28;20087;-74
2023/07/30 10:12:48;;;;;;;14.70;4.72;;;;;;;22.62;76.28;100937.44;5047901;28;20027;-76
2023/07/30 10:15:23;;;;;;;13.43;4.85;;;;;;;23.11;75.72;100940.03;5041383;28;20040;-76
2023/07/30 10:17:52;;;;;;;17.17;5.00;;;;;;;23.22;74.74;100945.09;5043909;28;20033;-74
2023/07/30 10:20:26;;;;;;;19.33;4.80;;;;;;;23.43;74.19;100949.06;5041606;28;20112;-74
2023/07/30 10:22:53;;;;;;;18.75;4.90;;;;;;;23.25;72.84;100949.34;5072936;27;20320;-74
2023/07/30 10:25:21;;;;;;;15.82;4.38;;;;;;;22.69;75.16;100954.78;5043440;28;20041;-73
2023/07/30 10:27:49;;;;;;;17.73;4.75;;;;;;;22.53;76.25;100959.38;5044356;28;20041;-73
2023/07/30 10:30:17;;;;;;;13.82;4.15;;;;;;;22.20;77.90;100956.69;5042553;28;20037;-74
2023/07/30 10:33:08;;;;;;;20.17;4.28;;;;;;;21.95;77.04;100953.09;5046509;28;20980;-74
2023/07/30 10:35:35;;;;;;;14.60;4.85;;;;;;;22.05;77.64;100961.91;5046858;28;20550;-74
2023/07/30 10:38:27;;;;;;;17.48;4.13;;;;;;;21.48;80.19;100963.69;5045804;28;20045;-73
2023/07/30 10:41:06;;;;;;;18.42;5.05;;;;;;;21.49;79.61;100982.53;5054178;28;20838;-76
2023/07/30 10:43:38;;;;;;;9.43;3.35;;;;;;;21.49;80.00;100978.94;5039502;28;20029;-73
2023/07/30 10:46:04;;;;;;;;;;;;;;;21.49;80.91;100977.09;5046419;28;20112;-73
2023/07/30 10:48:34;;;;;;;14.68;4.28;;;;;;;21.56;79.70;100982.69;5051425;28;20443;-76
2023/07/30 10:51:02;;;;;;;13.02;4.50;;;;;;;21.49;80.13;100977.09;5041609;28;20045;-76
2023/07/30 10:53:28;;;;;;;12.98;3.78;;;;;;;21.90;77.91;100983.47;5041428;28;20108;-75
2023/07/30 10:55:55;;;;;;;13.88;3.60;;;;;;;22.52;76.11;100982.13;5042480;28;20490;-73
2023/07/30 10:58:22;;;;;;;15.27;3.60;;;;;;;22.49;76.23;100978.75;5038189;28;20344;-74
2023/07/30 11:00:49;;;;;;;10.05;3.22;;;;;;;22.51;76.46;100972.28;5042024;28;20033;-73
2023/07/30 11:03:15;;;;;;;15.20;3.53;;;;;;;21.97;77.73;100989.06;5040449;28;20032;-73
2023/07/30 11:05:47;;;;;;;11.60;3.13;;;;;;;22.74;75.56;100979.56;5045357;28;20072;-76
2023/07/30 11:08:14;;;;;;;10.57;3.08;;;;;;;22.79;73.23;100987.19;5041645;28;20046;-74
2023/07/30 11:10:47;;;;;;;9.25;2.78;;;;;;;22.95;72.50;100992.63;5022023;28;20033;-76